createdAt,value
2022-08-11T00:00:49.247Z,1875
2022-08-11T00:02:52.414Z,1875
2022-08-11T00:03:51.893Z,1884
2022-08-11T00:04:51.639Z,1875
2022-08-11T00:05:59.471Z,1877
2022-08-11T00:06:49.250Z,1863
2022-08-11T00:07:49.322Z,1866
2022-08-11T00:08:49.325Z,1863
2022-08-11T00:11:06.734Z,1898
2022-08-11T00:11:51.541Z,1926
2022-08-11T00:12:49.267Z,1880
2022-08-11T00:13:51.682Z,1850
2022-08-11T00:14:56.548Z,1843
2022-08-11T00:15:52.147Z,1840
2022-08-11T00:16:49.268Z,1843
2022-08-11T00:17:49.297Z,1863
2022-08-11T00:18:52.099Z,1833
2022-08-11T00:20:11.684Z,1815
2022-08-11T00:20:49.228Z,1833
2022-08-11T00:22:04.394Z,1817
2022-08-11T00:22:56.418Z,1833
2022-08-11T00:23:58.252Z,1836
2022-08-11T00:24:53.358Z,1840
2022-08-11T00:25:52.039Z,1810
2022-08-11T00:26:49.238Z,1799
2022-08-11T00:27:51.492Z,1794
2022-08-11T00:28:49.203Z,1790
2022-08-11T00:29:52.053Z,1778
2022-08-11T00:31:52.064Z,1829
2022-08-11T00:32:51.392Z,1820
2022-08-11T00:33:49.269Z,1801
2022-08-11T00:35:50.882Z,1792
2022-08-11T00:35:51.650Z,1815
2022-08-11T00:36:49.260Z,1799
2022-08-11T00:37:49.303Z,1790
2022-08-11T00:39:49.256Z,1845
2022-08-11T00:40:49.375Z,1861
2022-08-11T00:41:49.232Z,1833
2022-08-11T00:42:49.246Z,1845
2022-08-11T00:43:49.277Z,1817
2022-08-11T00:45:54.460Z,1794
2022-08-11T00:46:49.244Z,1783
2022-08-11T00:47:49.219Z,1785
2022-08-11T00:48:51.962Z,1776
2022-08-11T00:49:54.776Z,1785
2022-08-11T00:50:52.204Z,1778
2022-08-11T00:51:57.684Z,1787
2022-08-11T00:52:53.205Z,1778
2022-08-11T00:53:56.610Z,1776
2022-08-11T00:54:49.263Z,1771
2022-08-11T00:55:55.424Z,1769
2022-08-11T00:56:51.732Z,1787
2022-08-11T00:57:49.276Z,1769
2022-08-11T00:58:52.838Z,1776
2022-08-11T00:59:49.203Z,1757
2022-08-11T01:00:49.263Z,1796
2022-08-11T01:01:55.035Z,1757
2022-08-11T01:02:49.259Z,1773
2022-08-11T01:03:52.583Z,1773
2022-08-11T01:04:55.855Z,1757
2022-08-11T01:05:52.289Z,1755
2022-08-11T01:06:49.195Z,1773
2022-08-11T01:08:02.940Z,1773
2022-08-11T01:08:49.248Z,1759
2022-08-11T01:09:54.659Z,1769
2022-08-11T01:10:51.982Z,1785
2022-08-11T01:11:55.272Z,1803
2022-08-11T01:12:49.239Z,1803
2022-08-11T01:13:49.212Z,1810
2022-08-11T01:14:49.193Z,1794
2022-08-11T01:15:56.073Z,1810
2022-08-11T01:16:51.497Z,1815
2022-08-11T01:17:49.204Z,1829
2022-08-11T01:18:51.794Z,1833
2022-08-11T01:20:45.248Z,1843
2022-08-11T01:20:54.484Z,1815
2022-08-11T01:21:49.191Z,1840
2022-08-11T01:22:49.239Z,1826
2022-08-11T01:23:49.213Z,1833
2022-08-11T01:24:50.192Z,1829
2022-08-11T01:25:57.041Z,1831
2022-08-11T01:26:51.970Z,1833
2022-08-11T01:27:49.244Z,1852
2022-08-11T01:28:52.150Z,1859
2022-08-11T01:29:49.586Z,1880
2022-08-11T01:30:49.230Z,1896
2022-08-11T01:31:49.169Z,1866
2022-08-11T01:32:49.308Z,1861
2022-08-11T01:33:49.160Z,1861
2022-08-11T01:34:49.256Z,1850
2022-08-11T01:35:54.196Z,1836
2022-08-11T01:37:49.210Z,1856
2022-08-11T01:38:52.151Z,1861
2022-08-11T01:39:51.562Z,1854
2022-08-11T01:41:05.412Z,1882
2022-08-11T01:41:49.206Z,1861
2022-08-11T01:42:49.192Z,1843
2022-08-11T01:43:49.190Z,1843
2022-08-11T01:44:49.245Z,1833
2022-08-11T01:45:49.172Z,1833
2022-08-11T01:46:51.394Z,1840
2022-08-11T01:47:53.236Z,1875
2022-08-11T01:48:49.175Z,1861
2022-08-11T01:50:08.550Z,1893
2022-08-11T01:50:49.152Z,1877
2022-08-11T01:51:49.185Z,1882
2022-08-11T01:52:49.220Z,1882
2022-08-11T01:53:49.152Z,1859
2022-08-11T01:54:49.148Z,1854
2022-08-11T01:55:49.163Z,1866
2022-08-11T01:56:49.129Z,1875
2022-08-11T01:57:58.204Z,1900
2022-08-11T01:58:49.131Z,1889
2022-08-11T01:59:54.310Z,1880
2022-08-11T02:00:49.182Z,1861
2022-08-11T02:01:51.983Z,1840
2022-08-11T02:02:49.179Z,1843
2022-08-11T02:04:09.788Z,1843
2022-08-11T02:04:57.525Z,1831
2022-08-11T02:05:49.156Z,1886
2022-08-11T02:06:51.707Z,1889
2022-08-11T02:07:49.192Z,1873
2022-08-11T02:08:50.697Z,1840
2022-08-11T02:09:52.117Z,1875
2022-08-11T02:10:56.575Z,1863
2022-08-11T02:11:51.373Z,1870
2022-08-11T02:12:52.782Z,1896
2022-08-11T02:13:49.183Z,1882
2022-08-11T02:15:04.338Z,1884
2022-08-11T02:15:49.115Z,1884
2022-08-11T02:16:49.180Z,1900
2022-08-11T02:18:06.730Z,1875
2022-08-11T02:18:49.205Z,1910
2022-08-11T02:19:49.163Z,1935
2022-08-11T02:20:51.216Z,1893
2022-08-11T02:21:56.539Z,1910
2022-08-11T02:22:49.125Z,1912
2022-08-11T02:24:05.744Z,1900
2022-08-11T02:24:49.172Z,1940
2022-08-11T02:25:49.152Z,1942
2022-08-11T02:26:50.125Z,1953
2022-08-11T02:27:49.157Z,1935
2022-08-11T02:28:49.129Z,1970
2022-08-11T02:29:54.497Z,2016
2022-08-11T02:30:54.290Z,1983
2022-08-11T02:32:24.705Z,1963
2022-08-11T02:32:49.139Z,1946
2022-08-11T02:33:49.162Z,1926
2022-08-11T02:34:59.963Z,1930
2022-08-11T02:36:49.112Z,1916
2022-08-11T02:37:52.054Z,1907
2022-08-11T02:38:52.024Z,1898
2022-08-11T02:39:49.166Z,1893
2022-08-11T02:40:51.669Z,1910
2022-08-11T02:41:49.105Z,1893
2022-08-11T02:42:49.554Z,1910
2022-08-11T02:43:52.082Z,1903
2022-08-11T02:45:06.623Z,1905
2022-08-11T02:45:51.506Z,1912
2022-08-11T02:46:52.046Z,1912
2022-08-11T02:47:51.354Z,1912
2022-08-11T02:48:49.129Z,1921
2022-08-11T02:50:02.742Z,1910
2022-08-11T02:50:51.475Z,1903
2022-08-11T02:51:51.359Z,1916
2022-08-11T02:52:49.108Z,1898
2022-08-11T02:53:56.195Z,1910
2022-08-11T02:55:57.819Z,1891
2022-08-11T02:56:51.734Z,1882
2022-08-11T02:57:51.614Z,1898
2022-08-11T02:58:51.412Z,1886
2022-08-11T02:59:49.158Z,1893
2022-08-11T03:00:49.152Z,1880
2022-08-11T03:01:51.578Z,1912
2022-08-11T03:02:49.111Z,1884
2022-08-11T03:03:52.026Z,1866
2022-08-11T03:04:49.137Z,1850
2022-08-11T03:05:49.101Z,1843
2022-08-11T03:06:49.105Z,1847
2022-08-11T03:07:51.337Z,1845
2022-08-11T03:09:49.133Z,1845
2022-08-11T03:10:49.074Z,1843
2022-08-11T03:11:51.759Z,1817
2022-08-11T03:12:53.772Z,1815
2022-08-11T03:13:50.085Z,1850
2022-08-11T03:14:51.399Z,1815
2022-08-11T03:15:56.287Z,1829
2022-08-11T03:16:51.148Z,1820
2022-08-11T03:17:49.066Z,1810
2022-08-11T03:18:49.065Z,1840
2022-08-11T03:19:49.077Z,1820
2022-08-11T03:20:49.072Z,1826
2022-08-11T03:22:01.522Z,1852
2022-08-11T03:22:54.082Z,1833
2022-08-11T03:24:01.474Z,1838
2022-08-11T03:24:49.089Z,1806
2022-08-11T03:25:52.121Z,1813
2022-08-11T03:26:49.046Z,1817
2022-08-11T03:27:49.071Z,1794
2022-08-11T03:28:51.666Z,1833
2022-08-11T03:29:49.081Z,1831
2022-08-11T03:30:51.940Z,1850
2022-08-11T03:31:49.090Z,1847
2022-08-11T03:32:52.205Z,1854
2022-08-11T03:33:49.082Z,1826
2022-08-11T03:34:49.076Z,1845
2022-08-11T03:35:49.049Z,1838
2022-08-11T03:37:56.453Z,1831
2022-08-11T03:38:49.046Z,1850
2022-08-11T03:39:56.550Z,1870
2022-08-11T03:40:49.022Z,1850
2022-08-11T03:42:03.368Z,1831
2022-08-11T03:42:49.089Z,1824
2022-08-11T03:43:57.930Z,1840
2022-08-11T03:44:51.367Z,1831
2022-08-11T03:45:51.087Z,1836
2022-08-11T03:46:49.092Z,1850
2022-08-11T03:47:55.650Z,1863
2022-08-11T03:49:51.274Z,1838
2022-08-11T03:50:54.471Z,1840
2022-08-11T03:51:52.109Z,1820
2022-08-11T03:52:51.379Z,1794
2022-08-11T03:54:52.019Z,1803
2022-08-11T03:55:05.068Z,1806
2022-08-11T03:55:51.300Z,1822
2022-08-11T03:56:49.051Z,1766
2022-08-11T03:57:50.034Z,1766
2022-08-11T03:58:49.010Z,1766
2022-08-11T03:59:49.070Z,1771
2022-08-11T04:01:49.139Z,1771
2022-08-11T04:02:56.430Z,1824
2022-08-11T04:03:49.090Z,1824
2022-08-11T04:04:54.651Z,1803
2022-08-11T04:05:48.995Z,1773
2022-08-11T04:06:49.105Z,1794
2022-08-11T04:07:53.069Z,1801
2022-08-11T04:08:52.024Z,1806
2022-08-11T04:09:49.006Z,1926
2022-08-11T04:10:51.078Z,1868
2022-08-11T04:11:51.995Z,1847
2022-08-11T04:12:49.449Z,1870
2022-08-11T04:13:49.006Z,1886
2022-08-11T04:14:51.116Z,1930
2022-08-11T04:15:51.486Z,1963
2022-08-11T04:16:51.262Z,1935
2022-08-11T04:17:50.045Z,1870
2022-08-11T04:18:52.451Z,1852
2022-08-11T04:19:49.015Z,1840
2022-08-11T04:20:49.000Z,1824
2022-08-11T04:21:51.476Z,1822
2022-08-11T04:22:49.050Z,1859
2022-08-11T04:24:36.386Z,1916
2022-08-11T04:24:50.600Z,1949
2022-08-11T04:25:58.441Z,1884
2022-08-11T04:26:51.265Z,1875
2022-08-11T04:27:51.251Z,1886
2022-08-11T04:28:51.676Z,1854
2022-08-11T04:30:03.912Z,1882
2022-08-11T04:31:51.571Z,1898
2022-08-11T04:32:51.982Z,1905
2022-08-11T04:33:49.029Z,1880
2022-08-11T04:34:49.032Z,1949
2022-08-11T04:35:51.550Z,1946
2022-08-11T04:36:48.963Z,1967
2022-08-11T04:37:53.547Z,1919
2022-08-11T04:38:49.008Z,1919
2022-08-11T04:39:54.406Z,1928
2022-08-11T04:40:48.976Z,1951
2022-08-11T04:41:57.532Z,1940
2022-08-11T04:42:51.946Z,1979
2022-08-11T04:44:02.359Z,1958
2022-08-11T04:44:48.957Z,1944
2022-08-11T04:45:48.947Z,1905
2022-08-11T04:46:48.948Z,2000
2022-08-11T04:48:03.445Z,1990
2022-08-11T04:48:51.641Z,1986
2022-08-11T04:49:48.999Z,1986
2022-08-11T04:51:08.776Z,1995
2022-08-11T04:51:51.182Z,1976
2022-08-11T04:52:57.580Z,1995
2022-08-11T04:53:52.426Z,2133
2022-08-11T04:54:49.035Z,2247
2022-08-11T04:55:54.014Z,2203
2022-08-11T04:56:56.313Z,2106
2022-08-11T04:57:49.021Z,2076
2022-08-11T04:58:49.044Z,2076
2022-08-11T04:59:52.102Z,2085
2022-08-11T05:00:49.014Z,2274
2022-08-11T05:01:51.771Z,2189
2022-08-11T05:02:53.916Z,2170
2022-08-11T05:03:48.960Z,2207
2022-08-11T05:04:48.992Z,2237
2022-08-11T05:05:56.602Z,2207
2022-08-11T05:06:51.785Z,2242
2022-08-11T05:07:56.180Z,2297
2022-08-11T05:08:51.530Z,2290
2022-08-11T05:09:52.009Z,2309
2022-08-11T05:10:48.939Z,2277
2022-08-11T05:11:48.927Z,2260
2022-08-11T05:12:49.019Z,2374
2022-08-11T05:13:48.916Z,2501
2022-08-11T05:14:51.976Z,2424
2022-08-11T05:15:51.524Z,2535
2022-08-11T05:16:48.909Z,2618
2022-08-11T05:17:51.385Z,2505
2022-08-11T05:18:48.932Z,2484
2022-08-11T05:20:10.327Z,2491
2022-08-11T05:20:51.402Z,2556
2022-08-11T05:21:48.976Z,2586
2022-08-11T05:22:48.955Z,2584
2022-08-11T05:23:51.968Z,2514
2022-08-11T05:24:48.931Z,2501
2022-08-11T05:26:44.689Z,2491
2022-08-11T05:27:11.283Z,2484
2022-08-11T05:27:52.644Z,2593
2022-08-11T05:28:51.556Z,2764
2022-08-11T05:29:48.955Z,2704
2022-08-11T05:30:48.937Z,2831
2022-08-11T05:31:48.935Z,2771
2022-08-11T05:32:48.983Z,2835
2022-08-11T05:33:56.321Z,2741
2022-08-11T05:35:00.547Z,2872
2022-08-11T05:36:02.316Z,2930
2022-08-11T05:36:51.207Z,2782
2022-08-11T05:37:51.040Z,2840
2022-08-11T05:38:55.063Z,2731
2022-08-11T05:39:51.270Z,2736
2022-08-11T05:40:53.267Z,2722
2022-08-11T05:41:56.362Z,2854
2022-08-11T05:42:52.042Z,2905
2022-08-11T05:44:20.749Z,3103
2022-08-11T05:44:48.934Z,3208
2022-08-11T05:46:04.055Z,2985
2022-08-11T05:47:00.560Z,3148
2022-08-11T05:47:51.167Z,3038
2022-08-11T05:48:48.892Z,2925
2022-08-11T05:49:51.274Z,3015
2022-08-11T05:50:48.887Z,2891
2022-08-11T05:51:52.398Z,2937
2022-08-11T05:52:55.410Z,2881
2022-08-11T05:53:51.106Z,2796
2022-08-11T05:54:48.901Z,2764
2022-08-11T05:56:02.294Z,2847
2022-08-11T05:56:51.852Z,2918
2022-08-11T05:57:51.591Z,2888
2022-08-11T05:58:48.866Z,3043
2022-08-11T05:59:48.896Z,3123
2022-08-11T06:00:51.159Z,3484
2022-08-11T06:01:51.582Z,3061
2022-08-11T06:02:51.307Z,2990
2022-08-11T06:03:58.222Z,2833
2022-08-11T06:04:48.874Z,2884
2022-08-11T06:05:48.910Z,2814
2022-08-11T06:06:51.709Z,2886
2022-08-11T06:08:54.423Z,3031
2022-08-11T06:09:48.930Z,2932
2022-08-11T06:10:48.872Z,2893
2022-08-11T06:11:48.899Z,2884
2022-08-11T06:12:48.909Z,2868
2022-08-11T06:13:51.631Z,2810
2022-08-11T06:14:51.596Z,2764
2022-08-11T06:15:51.216Z,2741
2022-08-11T06:16:51.076Z,2718
2022-08-11T06:17:51.432Z,2727
2022-08-11T06:18:56.335Z,2697
2022-08-11T06:19:51.758Z,2678
2022-08-11T06:20:51.757Z,2634
2022-08-11T06:21:56.115Z,2653
2022-08-11T06:22:52.955Z,2671
2022-08-11T06:23:56.149Z,2664
2022-08-11T06:24:48.828Z,2625
2022-08-11T06:25:56.496Z,2621
2022-08-11T06:27:13.635Z,2625
2022-08-11T06:27:48.830Z,2618
2022-08-11T06:28:48.824Z,2637
2022-08-11T06:29:55.016Z,2627
2022-08-11T06:31:51.121Z,2607
2022-08-11T06:32:48.890Z,2621
2022-08-11T06:33:48.850Z,2572
2022-08-11T06:34:56.145Z,2611
2022-08-11T06:35:48.871Z,2611
2022-08-11T06:36:48.857Z,2648
2022-08-11T06:37:53.642Z,2667
2022-08-11T06:38:48.866Z,2694
2022-08-11T06:39:51.088Z,2699
2022-08-11T06:40:51.323Z,2706
2022-08-11T06:42:48.848Z,2768
2022-08-11T06:43:55.450Z,2759
2022-08-11T06:44:48.858Z,2729
2022-08-11T06:45:50.049Z,2738
2022-08-11T06:46:48.806Z,2757
2022-08-11T06:47:51.617Z,2759
2022-08-11T06:48:48.825Z,2748
2022-08-11T06:49:48.860Z,2794
2022-08-11T06:50:48.873Z,2771
2022-08-11T06:51:48.839Z,2780
2022-08-11T06:52:49.050Z,2731
2022-08-11T06:54:02.821Z,2757
2022-08-11T06:54:51.561Z,2745
2022-08-11T06:55:56.897Z,2713
2022-08-11T06:56:57.443Z,2711
2022-08-11T06:57:49.033Z,2754
2022-08-11T06:58:48.840Z,2821
2022-08-11T06:59:48.797Z,2844
2022-08-11T07:00:54.029Z,2824
2022-08-11T07:01:49.661Z,2881
2022-08-11T07:02:48.845Z,2884
2022-08-11T07:03:48.902Z,2891
2022-08-11T07:04:51.284Z,2875
2022-08-11T07:05:48.816Z,2854
2022-08-11T07:06:51.169Z,2831
2022-08-11T07:07:48.809Z,2826
2022-08-11T07:08:48.890Z,2812
2022-08-11T07:09:48.837Z,2803
2022-08-11T07:10:48.824Z,2771
2022-08-11T07:11:51.265Z,2801
2022-08-11T07:12:48.797Z,2798
2022-08-11T07:13:48.773Z,2870
2022-08-11T07:16:12.246Z,2907
2022-08-11T07:17:48.885Z,2958
2022-08-11T07:19:48.809Z,2939
2022-08-11T07:20:51.569Z,2932
2022-08-11T07:22:02.435Z,2925
2022-08-11T07:22:51.471Z,2951
2022-08-11T07:23:48.811Z,2925
2022-08-11T07:24:59.628Z,2941
2022-08-11T07:25:51.397Z,2974
2022-08-11T07:26:48.799Z,2967
2022-08-11T07:27:48.772Z,2988
2022-08-11T07:28:48.781Z,2988
2022-08-11T07:29:51.868Z,2999
2022-08-11T07:30:51.574Z,2985
2022-08-11T07:31:48.796Z,3011
2022-08-11T07:32:51.605Z,2990
2022-08-11T07:34:50.808Z,2995
2022-08-11T07:36:48.761Z,2990
2022-08-11T07:37:50.910Z,2948
2022-08-11T07:38:52.227Z,2965
2022-08-11T07:39:48.889Z,3013
2022-08-11T07:40:48.755Z,3022
2022-08-11T07:41:48.745Z,3057
2022-08-11T07:42:51.122Z,3055
2022-08-11T07:43:48.749Z,3048
2022-08-11T07:44:48.773Z,3029
2022-08-11T07:45:48.788Z,2995
2022-08-11T07:46:48.742Z,2988
2022-08-11T07:47:48.789Z,2953
2022-08-11T07:48:51.498Z,2932
2022-08-11T07:49:48.804Z,2941
2022-08-11T07:50:50.834Z,2953
2022-08-11T07:52:52.847Z,2941
2022-08-11T07:53:58.575Z,2928
2022-08-11T07:54:51.516Z,2918
2022-08-11T07:55:51.769Z,2909
2022-08-11T07:57:09.454Z,2951
2022-08-11T07:58:14.304Z,2941
2022-08-11T07:58:59.194Z,2893
2022-08-11T08:00:04.322Z,2856
2022-08-11T08:00:51.943Z,2872
2022-08-11T08:02:48.768Z,2958
2022-08-11T08:03:54.200Z,2997
2022-08-11T08:04:48.730Z,2969
2022-08-11T08:06:06.027Z,2981
2022-08-11T08:06:48.750Z,2999
2022-08-11T08:07:51.221Z,2990
2022-08-11T08:08:49.793Z,2965
2022-08-11T08:09:51.206Z,2946
2022-08-11T08:10:48.804Z,2946
2022-08-11T08:11:48.753Z,2951
2022-08-11T08:13:03.998Z,2983
2022-08-11T08:13:48.760Z,3031
2022-08-11T08:14:57.198Z,2999
2022-08-11T08:15:54.027Z,2951
2022-08-11T08:16:48.760Z,2948
2022-08-11T08:18:09.072Z,2914
2022-08-11T08:18:51.786Z,2914
2022-08-11T08:19:51.135Z,2898
2022-08-11T08:20:48.760Z,2888
2022-08-11T08:21:53.712Z,2879
2022-08-11T08:22:48.876Z,2902
2022-08-11T08:23:53.715Z,2955
2022-08-11T08:24:51.325Z,2992
2022-08-11T08:25:54.264Z,3004
2022-08-11T08:26:51.495Z,3036
2022-08-11T08:27:48.731Z,3043
2022-08-11T08:28:48.737Z,3048
2022-08-11T08:29:48.742Z,3045
2022-08-11T08:30:55.046Z,3020
2022-08-11T08:31:51.455Z,3050
2022-08-11T08:32:48.716Z,3020
2022-08-11T08:33:51.000Z,2990
2022-08-11T08:34:51.287Z,2965
2022-08-11T08:35:54.056Z,2951
2022-08-11T08:36:48.724Z,2995
2022-08-11T08:37:49.262Z,3022
2022-08-11T08:38:51.653Z,3066
2022-08-11T08:39:48.923Z,3055
2022-08-11T08:40:48.774Z,3068
2022-08-11T08:41:48.775Z,3098
2022-08-11T08:42:50.965Z,3143
2022-08-11T08:43:49.586Z,3093
2022-08-11T08:44:51.206Z,3027
2022-08-11T08:45:50.968Z,2988
2022-08-11T08:46:48.783Z,2978
2022-08-11T08:47:52.536Z,2960
2022-08-11T08:48:48.697Z,2951
2022-08-11T08:49:50.755Z,2985
2022-08-11T08:51:10.987Z,2990
2022-08-11T08:52:01.516Z,3001
2022-08-11T08:52:51.630Z,2985
2022-08-11T08:53:53.409Z,2969
2022-08-11T08:54:48.725Z,2928
2022-08-11T08:55:56.082Z,2865
2022-08-11T08:56:48.700Z,2856
2022-08-11T08:57:48.838Z,2877
2022-08-11T08:58:48.739Z,2891
2022-08-11T08:59:51.540Z,2960
2022-08-11T09:00:48.686Z,3020
2022-08-11T09:01:51.617Z,3004
2022-08-11T09:02:49.663Z,2997
2022-08-11T09:04:04.613Z,3034
2022-08-11T09:04:50.985Z,3041
2022-08-11T09:05:48.695Z,3041
2022-08-11T09:06:52.417Z,3052
2022-08-11T09:07:50.628Z,3057
2022-08-11T09:08:49.655Z,3048
2022-08-11T09:09:48.734Z,3015
2022-08-11T09:10:52.159Z,3015
2022-08-11T09:11:50.949Z,3022
2022-08-11T09:12:49.018Z,3057
2022-08-11T09:14:05.540Z,3036
2022-08-11T09:14:48.790Z,3022
2022-08-11T09:15:51.959Z,3015
2022-08-11T09:16:48.822Z,2976
2022-08-11T09:17:48.691Z,2992
2022-08-11T09:18:48.694Z,3038
2022-08-11T09:20:48.685Z,3027
2022-08-11T09:21:53.176Z,3027
2022-08-11T09:23:03.212Z,3006
2022-08-11T09:24:08.387Z,3015
2022-08-11T09:24:48.736Z,2981
2022-08-11T09:25:48.686Z,2971
2022-08-11T09:26:48.698Z,2974
2022-08-11T09:27:50.311Z,3008
2022-08-11T09:28:48.752Z,3041
2022-08-11T09:29:51.511Z,3029
2022-08-11T09:30:48.730Z,2995
2022-08-11T09:31:48.718Z,2976
2022-08-11T09:32:48.696Z,2953
2022-08-11T09:33:48.677Z,2962
2022-08-11T09:34:48.780Z,2985
2022-08-11T09:35:50.845Z,2960
2022-08-11T09:36:51.674Z,2974
2022-08-11T09:37:55.999Z,2988
2022-08-11T09:38:49.708Z,2999
2022-08-11T09:39:48.798Z,3004
2022-08-11T09:40:52.713Z,3004
2022-08-11T09:42:00.853Z,3038
2022-08-11T09:42:48.741Z,3064
2022-08-11T09:43:48.658Z,3057
2022-08-11T09:44:51.119Z,3036
2022-08-11T09:45:51.115Z,3029
2022-08-11T09:46:48.730Z,2997
2022-08-11T09:47:48.695Z,3004
2022-08-11T09:48:53.929Z,2930
2022-08-11T09:49:48.729Z,2958
2022-08-11T09:50:48.673Z,2886
2022-08-11T09:52:05.466Z,2881
2022-08-11T09:53:18.351Z,2895
2022-08-11T09:54:03.488Z,2955
2022-08-11T09:54:48.812Z,2990
2022-08-11T09:55:51.341Z,2990
2022-08-11T09:56:48.648Z,2988
2022-08-11T09:57:51.814Z,2976
2022-08-11T09:58:48.631Z,2969
2022-08-11T09:59:51.247Z,2921
2022-08-11T10:00:48.700Z,2911
2022-08-11T10:01:51.450Z,2932
2022-08-11T10:02:53.119Z,2886
2022-08-11T10:03:48.641Z,2854
2022-08-11T10:04:48.743Z,2840
2022-08-11T10:06:48.674Z,2872
2022-08-11T10:07:54.652Z,2907
2022-08-11T10:08:48.655Z,2858
2022-08-11T10:09:48.722Z,2844
2022-08-11T10:10:48.673Z,2808
2022-08-11T10:12:51.780Z,2872
2022-08-11T10:14:31.040Z,2893
2022-08-11T10:14:49.647Z,2895
2022-08-11T10:16:00.123Z,2962
2022-08-11T10:16:48.688Z,2967
2022-08-11T10:17:51.535Z,2985
2022-08-11T10:18:50.799Z,2990
2022-08-11T10:20:03.936Z,3022
2022-08-11T10:20:51.601Z,2988
2022-08-11T10:22:58.828Z,2958
2022-08-11T10:24:01.334Z,2907
2022-08-11T10:24:51.019Z,2916
2022-08-11T10:25:48.661Z,2955
2022-08-11T10:26:48.690Z,2935
2022-08-11T10:28:29.087Z,2948
2022-08-11T10:29:12.045Z,2923
2022-08-11T10:29:50.125Z,2902
2022-08-11T10:30:48.647Z,2875
2022-08-11T10:31:57.111Z,2868
2022-08-11T10:32:58.488Z,2840
2022-08-11T10:33:59.558Z,2847
2022-08-11T10:34:54.421Z,2854
2022-08-11T10:35:48.674Z,2849
2022-08-11T10:36:48.660Z,2828
2022-08-11T10:38:07.650Z,2840
2022-08-11T10:38:51.207Z,2819
2022-08-11T10:39:51.097Z,2808
2022-08-11T10:40:48.609Z,2826
2022-08-11T10:42:07.616Z,2794
2022-08-11T10:42:57.856Z,2803
2022-08-11T10:44:51.150Z,2810
2022-08-11T10:45:48.647Z,2812
2022-08-11T10:46:50.858Z,2819
2022-08-11T10:47:51.206Z,2789
2022-08-11T10:48:51.094Z,2812
2022-08-11T10:49:50.934Z,2817
2022-08-11T10:50:48.622Z,2840
2022-08-11T10:51:50.820Z,2835
2022-08-11T10:52:48.598Z,2789
2022-08-11T10:53:48.705Z,2821
2022-08-11T10:54:50.992Z,2814
2022-08-11T10:55:50.947Z,2810
2022-08-11T10:56:53.840Z,2805
2022-08-11T10:58:04.940Z,2814
2022-08-11T10:58:48.568Z,2831
2022-08-11T10:59:48.633Z,2817
2022-08-11T11:00:48.620Z,2828
2022-08-11T11:01:51.254Z,2861
2022-08-11T11:03:23.160Z,2891
2022-08-11T11:03:55.853Z,2877
2022-08-11T11:04:51.052Z,2863
2022-08-11T11:06:27.549Z,2868
2022-08-11T11:06:55.942Z,2868
2022-08-11T11:07:49.579Z,2844
2022-08-11T11:08:51.409Z,2821
2022-08-11T11:09:48.622Z,2835
2022-08-11T11:10:48.619Z,2844
2022-08-11T11:11:48.610Z,2868
2022-08-11T11:12:48.617Z,2870
2022-08-11T11:13:53.322Z,2868
2022-08-11T11:14:50.760Z,2828
2022-08-11T11:15:48.572Z,2863
2022-08-11T11:16:48.608Z,2868
2022-08-11T11:17:48.586Z,2886
2022-08-11T11:19:01.116Z,2921
2022-08-11T11:19:48.558Z,2974
2022-08-11T11:20:48.688Z,2967
2022-08-11T11:21:48.556Z,2955
2022-08-11T11:22:48.528Z,2935
2022-08-11T11:23:48.544Z,2911
2022-08-11T11:24:48.528Z,2921
2022-08-11T11:25:55.457Z,2921
2022-08-11T11:26:48.649Z,2925
2022-08-11T11:27:48.558Z,2946
2022-08-11T11:28:50.888Z,2939
2022-08-11T11:29:48.564Z,2932
2022-08-11T11:30:48.538Z,2955
2022-08-11T11:31:51.459Z,2948
2022-08-11T11:32:51.307Z,2953
2022-08-11T11:34:06.787Z,2921
2022-08-11T11:34:53.696Z,2930
2022-08-11T11:35:50.819Z,2976
2022-08-11T11:36:51.055Z,2997
2022-08-11T11:38:03.458Z,2969
2022-08-11T11:38:48.543Z,2974
2022-08-11T11:39:48.726Z,2974
2022-08-11T11:40:48.576Z,2983
2022-08-11T11:43:06.180Z,2971
2022-08-11T11:43:48.570Z,2995
2022-08-11T11:44:48.526Z,2983
2022-08-11T11:45:55.670Z,3015
2022-08-11T11:46:48.513Z,3018
2022-08-11T11:47:59.985Z,3041
2022-08-11T11:48:48.560Z,3034
2022-08-11T11:49:48.630Z,3066
2022-08-11T11:50:48.563Z,3284
2022-08-11T11:51:50.088Z,3770
2022-08-11T11:52:55.789Z,4618
2022-08-11T11:53:48.538Z,4648
2022-08-11T11:54:49.475Z,4658
2022-08-11T11:55:55.863Z,4552
2022-08-11T11:56:48.606Z,4347
2022-08-11T11:57:58.989Z,4342
2022-08-11T11:59:52.548Z,4372
2022-08-11T12:00:50.903Z,4312
2022-08-11T12:01:51.323Z,4292
2022-08-11T12:02:48.635Z,4216
2022-08-11T12:03:48.569Z,4056
2022-08-11T12:05:03.998Z,3986
2022-08-11T12:05:48.534Z,4006
2022-08-11T12:06:51.519Z,4031
2022-08-11T12:07:56.911Z,4081
2022-08-11T12:09:12.731Z,4166
2022-08-11T12:09:51.486Z,4071
2022-08-11T12:10:48.501Z,4011
2022-08-11T12:11:48.602Z,3926
2022-08-11T12:12:50.555Z,3875
2022-08-11T12:13:48.573Z,3880
2022-08-11T12:14:48.553Z,3855
2022-08-11T12:16:31.708Z,3845
2022-08-11T12:16:48.483Z,3820
2022-08-11T12:17:56.067Z,3800
2022-08-11T12:18:51.883Z,3700
2022-08-11T12:19:48.722Z,3700
2022-08-11T12:20:48.525Z,3650
2022-08-11T12:21:51.437Z,3640
2022-08-11T12:22:48.568Z,3610
2022-08-11T12:23:48.536Z,3575
2022-08-11T12:24:48.515Z,3605
2022-08-11T12:26:10.003Z,3595
2022-08-11T12:27:14.653Z,3474
2022-08-11T12:27:50.989Z,3454
2022-08-11T12:28:50.828Z,3439
2022-08-11T12:29:57.285Z,3309
2022-08-11T12:30:50.833Z,3244
2022-08-11T12:31:48.534Z,3269
2022-08-11T12:32:51.296Z,3304
2022-08-11T12:33:48.537Z,3349
2022-08-11T12:34:50.492Z,3284
2022-08-11T12:36:00.563Z,3213
2022-08-11T12:36:53.764Z,3148
2022-08-11T12:38:09.507Z,3138
2022-08-11T12:38:51.304Z,3061
2022-08-11T12:40:16.343Z,3041
2022-08-11T12:41:16.116Z,2981
2022-08-11T12:42:48.468Z,2930
2022-08-11T12:43:56.498Z,2948
2022-08-11T12:44:48.463Z,2981
2022-08-11T12:45:51.928Z,3025
2022-08-11T12:46:50.727Z,2985
2022-08-11T12:48:12.251Z,2941
2022-08-11T12:49:00.696Z,2909
2022-08-11T12:49:54.382Z,2872
2022-08-11T12:50:48.536Z,2907
2022-08-11T12:52:11.338Z,2918
2022-08-11T12:52:50.726Z,2909
2022-08-11T12:53:48.535Z,2976
2022-08-11T12:54:51.958Z,3249
2022-08-11T12:56:07.317Z,3173
2022-08-11T12:56:50.554Z,3083
2022-08-11T12:57:48.684Z,3022
2022-08-11T12:59:50.782Z,2965
2022-08-11T13:00:51.608Z,2976
2022-08-11T13:01:48.426Z,2995
2022-08-11T13:03:03.531Z,2967
2022-08-11T13:03:52.434Z,2918
2022-08-11T13:05:00.842Z,2985
2022-08-11T13:05:50.669Z,3018
2022-08-11T13:06:51.134Z,3038
2022-08-11T13:07:51.633Z,3071
2022-08-11T13:08:48.470Z,3048
2022-08-11T13:09:50.594Z,3068
2022-08-11T13:10:51.479Z,3050
2022-08-11T13:11:55.586Z,3043
2022-08-11T13:12:50.433Z,3027
2022-08-11T13:13:57.475Z,3001
2022-08-11T13:14:55.944Z,3008
2022-08-11T13:15:50.747Z,2999
2022-08-11T13:16:48.490Z,2974
2022-08-11T13:17:51.454Z,2932
2022-08-11T13:18:49.430Z,2888
2022-08-11T13:19:55.718Z,2851
2022-08-11T13:20:48.452Z,2879
2022-08-11T13:21:48.392Z,2854
2022-08-11T13:24:01.784Z,2791
2022-08-11T13:24:55.550Z,2784
2022-08-11T13:25:51.084Z,2784
2022-08-11T13:26:51.049Z,2805
2022-08-11T13:27:48.490Z,2782
2022-08-11T13:28:56.755Z,2775
2022-08-11T13:29:48.409Z,2805
2022-08-11T13:30:48.480Z,2814
2022-08-11T13:31:53.651Z,2812
2022-08-11T13:32:48.412Z,2764
2022-08-11T13:33:48.456Z,2752
2022-08-11T13:34:54.569Z,2711
2022-08-11T13:35:53.437Z,2683
2022-08-11T13:36:55.844Z,2669
2022-08-11T13:38:19.081Z,2664
2022-08-11T13:38:50.989Z,2655
2022-08-11T13:39:49.435Z,2584
2022-08-11T13:40:56.108Z,2574
2022-08-11T13:42:26.153Z,2558
2022-08-11T13:42:50.843Z,2526
2022-08-11T13:43:48.443Z,2491
2022-08-11T13:44:50.711Z,2484
2022-08-11T13:45:51.005Z,2505
2022-08-11T13:46:48.387Z,2507
2022-08-11T13:47:48.431Z,2570
2022-08-11T13:48:48.373Z,2600
2022-08-11T13:49:48.369Z,2653
2022-08-11T13:50:48.618Z,2664
2022-08-11T13:51:50.591Z,2722